createdAt,value
2019-02-20T00:00:45.211Z,100727.41
2019-02-20T00:03:18.261Z,100726.91
2019-02-20T00:05:49.753Z,100724.03
2019-02-20T00:08:24.349Z,100726.71
2019-02-20T00:10:55.612Z,100729.84
2019-02-20T00:13:27.059Z,100725.14
2019-02-20T00:15:57.973Z,100722.59
2019-02-20T00:18:28.851Z,100728.23
2019-02-20T00:21:00.002Z,100735.80
2019-02-20T00:23:31.075Z,100733.38
2019-02-20T00:26:03.364Z,100731.14
2019-02-20T00:28:34.540Z,100730.15
2019-02-20T00:31:04.842Z,100733.81
2019-02-20T00:33:35.095Z,100732.67
2019-02-20T00:36:05.433Z,100732.55
2019-02-20T00:38:42.755Z,100731.06
2019-02-20T00:41:13.755Z,100728.49
2019-02-20T00:43:50.436Z,100730.31
2019-02-20T00:46:43.222Z,100730.09
2019-02-20T00:49:22.319Z,100728.18
2019-02-20T00:52:03.837Z,100733.27
2019-02-20T00:54:36.684Z,100738.91
2019-02-20T00:57:11.343Z,100745.87
2019-02-20T00:59:42.857Z,100743.85
2019-02-20T01:02:13.662Z,100740.52
2019-02-20T01:04:49.544Z,100747.55
2019-02-20T01:07:21.008Z,100742.95
2019-02-20T01:09:53.671Z,100749.77
2019-02-20T01:12:27.046Z,100747.16
2019-02-20T01:14:58.214Z,100752.98
2019-02-20T01:17:28.935Z,100747.69
2019-02-20T01:19:59.703Z,100748.99
2019-02-20T01:22:30.609Z,100743.31
2019-02-20T01:25:01.425Z,100738.02
2019-02-20T01:27:33.377Z,100739.70
2019-02-20T01:30:09.025Z,100731.74
2019-02-20T01:32:41.370Z,100730.44
2019-02-20T01:35:14.495Z,100725.58
2019-02-20T01:37:47.233Z,100720.33
2019-02-20T01:40:18.126Z,100723.59
2019-02-20T01:43:21.826Z,100722.69
2019-02-20T01:45:52.858Z,100724.78
2019-02-20T01:48:24.557Z,100728.70
2019-02-20T01:50:55.826Z,100724.82
2019-02-20T01:53:35.387Z,100729.80
2019-02-20T01:56:07.880Z,100734.58
2019-02-20T01:58:40.963Z,100725.27
2019-02-20T02:01:11.767Z,100732.23
2019-02-20T02:03:42.088Z,100726.40
2019-02-20T02:06:16.560Z,100725.20
2019-02-20T02:08:50.611Z,100731.73
2019-02-20T02:11:21.949Z,100721.53
2019-02-20T02:13:52.772Z,100730.31
2019-02-20T02:16:23.725Z,100730.84
2019-02-20T02:18:54.654Z,100732.94
2019-02-20T02:21:25.644Z,100730.84
2019-02-20T02:23:56.681Z,100732.59
2019-02-20T02:26:27.782Z,100731.44
2019-02-20T02:29:00.395Z,100729.27
2019-02-20T02:31:33.556Z,100730.95
2019-02-20T02:34:04.512Z,100734.36
2019-02-20T02:36:36.044Z,100737.01
2019-02-20T02:39:07.536Z,100738.92
2019-02-20T02:41:38.541Z,100735.33
2019-02-20T02:44:11.191Z,100737.09
2019-02-20T02:46:42.142Z,100734.20
2019-02-20T02:49:13.348Z,100733.80
2019-02-20T02:51:44.249Z,100734.20
2019-02-20T02:54:16.239Z,100740.86
2019-02-20T02:56:47.103Z,100734.24
2019-02-20T02:59:18.614Z,100740.63
2019-02-20T03:01:51.341Z,100742.80
2019-02-20T03:04:23.576Z,100745.02
2019-02-20T03:06:54.622Z,100738.47
2019-02-20T03:09:26.102Z,100742.80
2019-02-20T03:11:57.482Z,100735.41
2019-02-20T03:14:30.251Z,100738.02
2019-02-20T03:17:01.228Z,100743.25
2019-02-20T03:19:32.167Z,100738.80
2019-02-20T03:22:04.526Z,100745.98
2019-02-20T03:24:36.095Z,100737.97
2019-02-20T03:27:08.952Z,100743.55
2019-02-20T03:29:39.926Z,100749.48
2019-02-20T03:32:14.850Z,100744.88
2019-02-20T03:34:45.977Z,100752.73
2019-02-20T03:37:17.059Z,100759.02
2019-02-20T03:39:48.152Z,100765.30
2019-02-20T03:42:18.933Z,100761.27
2019-02-20T03:44:49.771Z,100766.55
2019-02-20T03:47:20.686Z,100761.94
2019-02-20T03:49:52.029Z,100760.30
2019-02-20T03:52:23.043Z,100764.11
2019-02-20T03:54:53.899Z,100761.56
2019-02-20T03:57:28.500Z,100768.90
2019-02-20T03:59:59.613Z,100769.69
2019-02-20T04:02:30.915Z,100764.97
2019-02-20T04:05:05.725Z,100766.13
2019-02-20T04:07:44.658Z,100765.30
2019-02-20T04:10:15.824Z,100765.41
2019-02-20T04:12:47.920Z,100756.77
2019-02-20T04:15:22.524Z,100762.63
2019-02-20T04:17:53.579Z,100770.61
2019-02-20T04:20:26.059Z,100771.94
2019-02-20T04:22:57.428Z,100769.54
2019-02-20T04:25:28.436Z,100773.53
2019-02-20T04:28:00.777Z,100765.81
2019-02-20T04:30:31.972Z,100767.12
2019-02-20T04:33:02.847Z,100771.70
2019-02-20T04:35:33.685Z,100773.84
2019-02-20T04:38:04.625Z,100770.24
2019-02-20T04:40:36.008Z,100769.30
2019-02-20T04:43:13.010Z,100769.92
2019-02-20T04:45:45.997Z,100770.16
2019-02-20T04:48:41.936Z,100762.83
2019-02-20T04:51:42.100Z,100770.15
2019-02-20T04:54:41.796Z,100774.61
2019-02-20T04:57:18.921Z,100773.55
2019-02-20T04:59:50.568Z,100768.75
2019-02-20T05:02:25.018Z,100774.78
2019-02-20T05:05:02.261Z,100772.86
2019-02-20T05:07:39.442Z,100774.61
2019-02-20T05:10:16.966Z,100762.73
2019-02-20T05:12:48.946Z,100766.98
2019-02-20T05:15:19.890Z,100767.08
2019-02-20T05:17:53.629Z,100763.06
2019-02-20T05:20:24.889Z,100773.17
2019-02-20T05:22:55.218Z,100772.70
2019-02-20T05:25:25.437Z,100780.02
2019-02-20T05:27:55.696Z,100777.85
2019-02-20T05:30:57.391Z,100783.95
2019-02-20T05:33:30.352Z,100783.72
2019-02-20T05:36:03.665Z,100781.87
2019-02-20T05:38:36.732Z,100778.47
2019-02-20T05:41:16.160Z,100773.87
2019-02-20T05:43:46.922Z,100781.17
2019-02-20T05:46:18.834Z,100786.28
2019-02-20T05:48:50.805Z,100785.66
2019-02-20T05:51:21.539Z,100784.03
2019-02-20T05:54:01.880Z,100790.34
2019-02-20T05:56:35.736Z,100782.73
2019-02-20T05:59:10.376Z,100796.78
2019-02-20T06:01:40.811Z,100793.91
2019-02-20T06:04:23.975Z,100804.72
2019-02-20T06:06:56.544Z,100808.17
2019-02-20T06:09:27.512Z,100806.66
2019-02-20T06:11:58.695Z,100807.19
2019-02-20T06:14:29.432Z,100805.72
2019-02-20T06:17:00.626Z,100807.88
2019-02-20T06:19:31.615Z,100813.13
2019-02-20T06:22:02.434Z,100813.66
2019-02-20T06:24:33.399Z,100822.23
2019-02-20T06:27:04.184Z,100828.41
2019-02-20T06:29:35.053Z,100830.83
2019-02-20T06:32:08.265Z,100830.95
2019-02-20T06:34:40.901Z,100835.67
2019-02-20T06:37:16.206Z,100834.23
2019-02-20T06:39:50.074Z,100843.56
2019-02-20T06:42:25.660Z,100845.00
2019-02-20T06:44:57.554Z,100839.83
2019-02-20T06:47:29.926Z,100845.86
2019-02-20T06:50:01.493Z,100846.40
2019-02-20T06:52:34.193Z,100848.80
2019-02-20T06:55:07.018Z,100846.72
2019-02-20T06:57:41.916Z,100843.92
2019-02-20T07:00:16.928Z,100855.05
2019-02-20T07:02:52.817Z,100852.88
2019-02-20T07:06:20.985Z,100860.62
2019-02-20T07:09:30.512Z,100859.84
2019-02-20T07:12:36.212Z,100859.38
2019-02-20T07:15:50.925Z,100856.42
2019-02-20T07:19:01.361Z,100861.37
2019-02-20T07:22:24.285Z,100868.81
2019-02-20T07:25:14.056Z,100862.54
2019-02-20T07:30:50.023Z,100876.34
2019-02-20T07:33:45.675Z,100879.98
2019-02-20T07:36:16.820Z,100884.18
2019-02-20T07:38:54.111Z,100881.87
2019-02-20T07:44:50.338Z,100891.58
2019-02-20T07:47:23.933Z,100900.00
2019-02-20T07:50:00.037Z,100908.27
2019-02-20T07:52:34.219Z,100914.83
2019-02-20T07:55:15.902Z,100917.92
2019-02-20T07:57:48.238Z,100923.77
2019-02-20T08:00:24.233Z,100928.57
2019-02-20T08:03:00.869Z,100935.97
2019-02-20T08:05:40.106Z,100937.92
2019-02-20T08:09:00.251Z,100946.59
2019-02-20T08:11:31.028Z,100950.84
2019-02-20T08:14:07.829Z,100948.97
2019-02-20T08:16:51.974Z,100930.80
2019-02-20T08:19:21.899Z,100933.02
2019-02-20T08:21:53.395Z,100941.46
2019-02-20T08:24:29.600Z,100940.50
2019-02-20T08:27:05.498Z,100942.50
2019-02-20T08:29:45.542Z,100937.69
2019-02-20T08:32:24.274Z,100952.25
2019-02-20T08:34:55.181Z,100950.66
2019-02-20T08:37:44.171Z,100954.34
2019-02-20T08:40:17.679Z,100958.72
2019-02-20T08:42:56.021Z,100957.97
2019-02-20T08:45:30.599Z,100956.50
2019-02-20T08:48:04.501Z,100957.69
2019-02-20T08:50:42.967Z,100958.73
2019-02-20T08:53:21.239Z,100960.48
2019-02-20T08:55:56.931Z,100954.95
2019-02-20T08:58:34.542Z,100954.70
2019-02-20T09:01:16.088Z,100959.16
2019-02-20T09:03:45.493Z,100956.02
2019-02-20T09:06:26.312Z,100966.99
2019-02-20T09:09:11.303Z,100961.59
2019-02-20T09:11:42.402Z,100965.77
2019-02-20T09:14:17.355Z,100965.58
2019-02-20T09:16:48.562Z,100965.94
2019-02-20T09:19:41.311Z,100971.66
2019-02-20T09:22:19.571Z,100964.02
2019-02-20T09:25:07.608Z,100967.68
2019-02-20T09:27:42.013Z,100971.30
2019-02-20T09:30:37.076Z,100969.19
2019-02-20T09:33:15.756Z,100967.81
2019-02-20T09:36:12.953Z,100976.47
2019-02-20T09:38:55.683Z,100970.57
2019-02-20T09:41:38.275Z,100979.09
2019-02-20T09:44:13.624Z,100983.55
2019-02-20T09:46:43.936Z,100982.83
2019-02-20T09:49:30.136Z,100986.02
2019-02-20T09:52:08.692Z,100988.84
2019-02-20T09:54:43.149Z,100989.05
2019-02-20T09:57:26.886Z,100991.12
2019-02-20T10:00:06.915Z,101001.12
2019-02-20T10:02:47.291Z,100990.95
2019-02-20T10:05:24.786Z,100989.92
2019-02-20T10:08:01.964Z,100989.62
2019-02-20T10:10:46.047Z,100988.10
2019-02-20T10:13:17.717Z,100996.86
2019-02-20T10:15:49.044Z,101000.53
2019-02-20T10:18:19.788Z,101007.06
2019-02-20T10:20:50.994Z,101009.14
2019-02-20T10:23:22.785Z,101004.69
2019-02-20T10:26:00.549Z,101005.05
2019-02-20T10:28:26.019Z,100999.66
2019-02-20T10:30:56.861Z,100998.17
2019-02-20T10:33:29.644Z,100991.19
2019-02-20T10:36:01.366Z,100998.16
2019-02-20T10:38:32.237Z,100993.83
2019-02-20T10:41:05.455Z,100994.53
2019-02-20T10:43:36.226Z,101009.67
2019-02-20T10:46:07.467Z,100997.93
2019-02-20T10:48:38.320Z,101003.55
2019-02-20T10:51:10.980Z,100998.03
2019-02-20T10:53:42.166Z,101001.61
2019-02-20T10:56:12.976Z,101006.91
2019-02-20T10:58:43.890Z,101008.05
2019-02-20T11:01:14.580Z,101008.00
2019-02-20T11:03:51.460Z,101014.30
2019-02-20T11:06:17.978Z,101004.16
2019-02-20T11:08:50.401Z,101010.48
2019-02-20T11:11:21.568Z,100993.08
2019-02-20T11:13:55.708Z,100991.41
2019-02-20T11:16:27.226Z,100996.68
2019-02-20T11:19:04.374Z,100989.91
2019-02-20T11:21:35.889Z,100994.53
2019-02-20T11:24:08.723Z,100997.41
2019-02-20T11:26:50.229Z,100996.59
2019-02-20T11:31:40.206Z,100984.80
2019-02-20T11:34:10.669Z,100985.56
2019-02-20T11:36:41.033Z,100985.45
2019-02-20T11:39:11.805Z,100983.69
2019-02-20T11:41:43.933Z,100967.75
2019-02-20T11:44:20.796Z,100969.75
2019-02-20T11:46:47.892Z,100989.09
2019-02-20T11:49:21.551Z,100987.98
2019-02-20T11:51:54.072Z,100979.48
2019-02-20T11:54:28.149Z,100974.05
2019-02-20T11:56:58.779Z,100980.20
2019-02-20T11:59:29.481Z,100965.73
2019-02-20T12:02:06.581Z,100970.56
2019-02-20T12:04:36.229Z,100970.41
2019-02-20T12:07:12.574Z,100977.65
2019-02-20T12:09:48.696Z,100967.50
2019-02-20T12:12:20.891Z,100983.71
2019-02-20T12:14:51.848Z,100977.04
2019-02-20T12:17:25.520Z,100987.06
2019-02-20T12:19:56.395Z,100978.25
2019-02-20T12:23:38.422Z,100972.81
2019-02-20T12:25:38.720Z,100969.77
2019-02-20T12:28:36.683Z,100973.66
2019-02-20T12:31:26.382Z,100971.61
2019-02-20T12:34:21.858Z,100967.27
2019-02-20T12:37:14.439Z,100979.22
2019-02-20T12:39:56.553Z,100974.47
2019-02-20T12:42:43.126Z,100973.15
2019-02-20T12:45:46.391Z,100973.79
2019-02-20T12:48:42.941Z,100977.78
2019-02-20T12:51:38.939Z,100976.41
2019-02-20T12:54:09.287Z,100971.55
2019-02-20T12:56:51.069Z,100977.98
2019-02-20T12:59:12.410Z,100975.84
2019-02-20T13:01:42.697Z,100977.66
2019-02-20T13:05:25.247Z,100969.65
2019-02-20T13:08:09.394Z,100977.61
2019-02-20T13:10:50.504Z,100980.23
2019-02-20T13:13:43.509Z,100981.80
2019-02-20T13:16:30.355Z,100975.03
2019-02-20T13:19:13.179Z,100971.92
2019-02-20T13:21:56.356Z,100971.08
2019-02-20T13:24:43.971Z,100980.56
2019-02-20T13:30:45.750Z,100965.23
2019-02-20T13:33:37.445Z,100969.69
2019-02-20T13:36:45.450Z,100970.64
2019-02-20T13:39:20.906Z,100969.14
2019-02-20T13:42:02.510Z,100967.23
2019-02-20T13:44:39.310Z,100977.43
2019-02-20T13:47:23.283Z,100970.56
2019-02-20T13:49:57.515Z,100972.74
2019-02-20T13:52:40.967Z,100958.98
2019-02-20T13:55:14.893Z,100970.41
2019-02-20T13:57:55.618Z,100972.70
2019-02-20T14:00:36.180Z,100969.32
2019-02-20T14:03:15.225Z,100969.13
2019-02-20T14:05:52.686Z,100964.92
2019-02-20T14:08:37.998Z,100961.89
2019-02-20T14:11:11.126Z,100940.42
2019-02-20T14:13:52.304Z,100959.22
2019-02-20T14:16:36.249Z,100958.68
2019-02-20T14:19:40.663Z,100956.34
2019-02-20T14:22:08.278Z,100959.31
2019-02-20T14:25:09.712Z,100962.59
2019-02-20T14:27:49.777Z,100963.70
2019-02-20T14:30:43.482Z,100960.02
2019-02-20T14:35:34.392Z,100955.58
2019-02-20T14:38:04.741Z,100958.53
2019-02-20T14:40:35.833Z,100959.41
2019-02-20T14:43:06.273Z,100960.14
2019-02-20T14:45:36.597Z,100961.55
2019-02-20T14:48:06.952Z,100961.64
2019-02-20T14:50:37.787Z,100969.74
2019-02-20T14:53:08.210Z,100963.67
2019-02-20T14:55:38.649Z,100967.14
2019-02-20T14:58:09.603Z,100971.00
2019-02-20T15:00:40.641Z,100967.56
2019-02-20T15:03:11.155Z,100963.28
2019-02-20T15:05:41.914Z,100974.27
2019-02-20T15:08:12.691Z,100968.03
2019-02-20T15:10:43.109Z,100969.63
2019-02-20T15:13:14.111Z,100974.91
2019-02-20T15:15:44.951Z,100977.62
2019-02-20T15:18:15.278Z,100977.92
2019-02-20T15:21:00.040Z,100982.92
2019-02-20T15:23:31.427Z,100977.62
2019-02-20T15:26:07.741Z,100985.63
2019-02-20T15:28:45.086Z,100985.63
2019-02-20T15:31:17.393Z,100981.91
2019-02-20T15:33:56.467Z,100980.00
2019-02-20T15:36:25.563Z,100981.59
2019-02-20T15:39:05.174Z,100983.44
2019-02-20T15:41:35.937Z,100974.58
2019-02-20T15:44:12.560Z,100976.21
2019-02-20T15:46:44.069Z,100979.49
2019-02-20T15:49:15.758Z,100977.98
2019-02-20T15:51:49.897Z,100981.48
2019-02-20T15:54:27.446Z,100982.97
2019-02-20T15:57:01.391Z,100987.83
2019-02-20T15:59:32.219Z,100991.84
2019-02-20T16:02:03.713Z,100993.98
2019-02-20T16:04:34.450Z,100997.52
2019-02-20T16:07:05.051Z,100992.84
2019-02-20T16:09:35.576Z,100996.73
2019-02-20T16:12:16.821Z,101002.83
2019-02-20T16:14:52.469Z,101000.61
2019-02-20T16:17:23.283Z,101000.20
2019-02-20T16:19:54.299Z,101005.31
2019-02-20T16:22:26.389Z,101003.64
2019-02-20T16:24:57.799Z,101019.39
2019-02-20T16:27:31.184Z,101019.53
2019-02-20T16:30:05.639Z,101015.58
2019-02-20T16:32:39.744Z,101025.79
2019-02-20T16:35:11.393Z,101020.52
2019-02-20T16:37:47.186Z,101027.78
2019-02-20T16:40:17.684Z,101030.42
2019-02-20T16:43:07.724Z,101032.20
2019-02-20T16:45:42.859Z,101031.84
2019-02-20T16:48:17.641Z,101035.91
2019-02-20T16:50:51.338Z,101038.14
2019-02-20T16:53:25.042Z,101041.08
2019-02-20T16:55:58.635Z,101043.72
2019-02-20T16:58:33.571Z,101042.20
2019-02-20T17:01:08.204Z,101042.59
2019-02-20T17:04:04.483Z,101051.24
2019-02-20T17:06:25.489Z,101051.44
2019-02-20T17:09:01.103Z,101056.91
2019-02-20T17:11:42.940Z,101064.53
2019-02-20T17:14:16.036Z,101064.33
2019-02-20T17:16:49.162Z,101068.39
2019-02-20T17:19:23.438Z,101073.50
2019-02-20T17:21:58.583Z,101077.53
2019-02-20T17:24:33.361Z,101079.05
2019-02-20T17:27:02.771Z,101079.05
2019-02-20T17:29:34.415Z,101076.30
2019-02-20T17:32:07.981Z,101074.06
2019-02-20T17:34:39.174Z,101078.02
2019-02-20T17:37:15.460Z,101076.70
2019-02-20T17:39:48.268Z,101075.95
2019-02-20T17:42:19.964Z,101077.08
2019-02-20T17:44:51.587Z,101074.07
2019-02-20T17:47:22.787Z,101075.19
2019-02-20T17:49:53.278Z,101084.63
2019-02-20T17:52:28.597Z,101088.03
2019-02-20T17:55:02.687Z,101093.77
2019-02-20T17:57:36.558Z,101088.39
2019-02-20T18:00:12.566Z,101085.00
2019-02-20T18:02:51.288Z,101086.22
2019-02-20T18:05:33.867Z,101089.52
2019-02-20T18:08:04.406Z,101091.52
2019-02-20T18:10:46.340Z,101095.94
2019-02-20T18:13:08.703Z,101097.26
2019-02-20T18:15:43.040Z,101105.17
2019-02-20T18:18:20.461Z,101094.98
2019-02-20T18:20:54.381Z,101098.37
2019-02-20T18:23:30.788Z,101092.74
2019-02-20T18:26:02.337Z,101100.76
2019-02-20T18:28:36.013Z,101109.90
2019-02-20T18:31:14.040Z,101101.78
2019-02-20T18:33:48.782Z,101108.38
2019-02-20T18:36:23.810Z,101104.23
2019-02-20T18:38:55.897Z,101105.08
2019-02-20T18:41:32.554Z,101113.30
2019-02-20T18:44:12.779Z,101112.91
2019-02-20T18:46:44.160Z,101114.98
2019-02-20T18:49:21.010Z,101116.87
2019-02-20T18:51:56.533Z,101114.23
2019-02-20T18:54:27.940Z,101114.79
2019-02-20T18:56:59.033Z,101123.27
2019-02-20T18:59:30.025Z,101117.63
2019-02-20T19:02:14.798Z,101132.34
2019-02-20T19:05:00.750Z,101128.55
2019-02-20T19:07:36.964Z,101122.91
2019-02-20T19:10:11.389Z,101131.59
2019-02-20T19:13:53.280Z,101125.16
2019-02-20T19:17:12.041Z,101129.41
2019-02-20T19:20:50.320Z,101134.03
2019-02-20T19:23:56.386Z,101137.98
2019-02-20T19:27:41.415Z,101139.40
2019-02-20T19:31:09.013Z,101137.50
2019-02-20T19:34:28.125Z,101139.09
2019-02-20T19:41:19.761Z,101145.10
2019-02-20T19:44:45.813Z,101149.13
2019-02-20T19:48:17.586Z,101153.17
2019-02-20T19:51:23.941Z,101150.35
2019-02-20T19:54:34.818Z,101151.84
2019-02-20T19:58:40.401Z,101154.12
2019-02-20T20:01:52.873Z,101153.47
2019-02-20T20:13:45.767Z,101156.00
2019-02-20T20:21:10.566Z,101159.64
2019-02-20T20:27:06.471Z,101154.31
2019-02-20T20:45:14.229Z,101151.02
2019-02-20T20:48:12.370Z,101159.02
2019-02-20T20:59:53.524Z,101149.20
2019-02-20T21:21:24.230Z,101137.31
2019-02-20T21:27:53.223Z,101148.00
2019-02-20T21:41:22.791Z,101149.40
2019-02-20T21:44:35.005Z,101155.69
2019-02-20T21:48:22.081Z,101149.69
2019-02-20T21:58:47.861Z,101154.21
2019-02-20T22:01:26.663Z,101154.21
2019-02-20T22:12:22.650Z,101159.91
2019-02-20T22:16:03.543Z,101152.64
2019-02-20T22:19:24.496Z,101162.94
2019-02-20T22:26:43.189Z,101156.89
2019-02-20T22:30:21.702Z,101157.80
2019-02-20T22:34:05.782Z,101164.16
2019-02-20T22:37:44.989Z,101160.59
2019-02-20T22:40:52.072Z,101154.55
2019-02-20T22:44:16.001Z,101156.64
2019-02-20T22:47:11.837Z,101158.74
2019-02-20T22:50:31.489Z,101160.22
2019-02-20T22:53:34.862Z,101159.61
2019-02-20T22:57:04.305Z,101162.31
2019-02-20T23:00:16.492Z,101164.94
2019-02-20T23:03:32.713Z,101162.06
2019-02-20T23:06:48.485Z,101166.78
2019-02-20T23:10:06.163Z,101158.37
2019-02-20T23:13:12.715Z,101159.20
2019-02-20T23:15:54.465Z,101158.30
2019-02-20T23:18:38.061Z,101165.94
2019-02-20T23:21:06.828Z,101172.87
2019-02-20T23:23:37.791Z,101173.98
2019-02-20T23:26:08.284Z,101168.94
2019-02-20T23:29:50.051Z,101170.91
2019-02-20T23:33:13.059Z,101176.98
2019-02-20T23:36:03.670Z,101180.76
2019-02-20T23:39:05.934Z,101183.76
2019-02-20T23:41:36.109Z,101190.38
2019-02-20T23:44:06.216Z,101199.36
2019-02-20T23:50:04.183Z,101207.70
2019-02-20T23:52:34.185Z,101205.25
2019-02-20T23:55:04.210Z,101209.81
2019-02-20T23:57:34.080Z,101212.17
